sensor_id;sensor_type;location;lat;lon;timestamp;pressure;altitude;pressure_sealevel;temperature;humidity
71105;BME280;58760;48.716;8.962;2023-05-23T00:00:56;96331.16;;;16.41;91.75
71105;BME280;58760;48.716;8.962;2023-05-23T00:03:23;96322.84;;;16.49;91.99
71105;BME280;58760;48.716;8.962;2023-05-23T00:05:48;96324.09;;;16.53;91.99
71105;BME280;58760;48.716;8.962;2023-05-23T00:08:15;96328.16;;;16.62;92.33
71105;BME280;58760;48.716;8.962;2023-05-23T00:10:41;96327.09;;;16.70;92.02
71105;BME280;58760;48.716;8.962;2023-05-23T00:13:06;96333.88;;;16.72;92.27
71105;BME280;58760;48.716;8.962;2023-05-23T00:15:34;96324.78;;;16.80;92.30
71105;BME280;58760;48.716;8.962;2023-05-23T00:18:01;96322.31;;;16.79;92.47
71105;BME280;58760;48.716;8.962;2023-05-23T00:20:27;96321.47;;;16.78;92.60
71105;BME280;58760;48.716;8.962;2023-05-23T00:22:53;96327.09;;;16.70;92.85
71105;BME280;58760;48.716;8.962;2023-05-23T00:25:18;96320.72;;;16.71;93.13
71105;BME280;58760;48.716;8.962;2023-05-23T00:27:46;96338.81;;;16.76;92.70
71105;BME280;58760;48.716;8.962;2023-05-23T00:30:11;96316.97;;;16.72;93.11
71105;BME280;58760;48.716;8.962;2023-05-23T00:32:37;96315.56;;;16.69;93.30
71105;BME280;58760;48.716;8.962;2023-05-23T00:35:02;96314.72;;;16.69;93.35
71105;BME280;58760;48.716;8.962;2023-05-23T00:37:27;96316.88;;;16.60;94.10
71105;BME280;58760;48.716;8.962;2023-05-23T00:39:53;96318.09;;;16.64;94.34
71105;BME280;58760;48.716;8.962;2023-05-23T00:42:18;96314.78;;;16.62;94.71
71105;BME280;58760;48.716;8.962;2023-05-23T00:44:44;96322.00;;;16.62;94.67
71105;BME280;58760;48.716;8.962;2023-05-23T00:47:09;96320.97;;;16.63;95.16
71105;BME280;58760;48.716;8.962;2023-05-23T00:49:37;96326.72;;;16.66;95.11
71105;BME280;58760;48.716;8.962;2023-05-23T00:52:04;96329.19;;;16.61;95.17
71105;BME280;58760;48.716;8.962;2023-05-23T00:54:29;96333.53;;;16.62;95.45
71105;BME280;58760;48.716;8.962;2023-05-23T00:56:58;96327.59;;;16.60;95.55
71105;BME280;58760;48.716;8.962;2023-05-23T00:59:24;96331.28;;;16.53;95.69
71105;BME280;58760;48.716;8.962;2023-05-23T01:01:50;96330.69;;;16.51;96.17
71105;BME280;58760;48.716;8.962;2023-05-23T01:04:17;96338.09;;;16.49;95.82
71105;BME280;58760;48.716;8.962;2023-05-23T01:06:44;96344.56;;;16.41;95.92
71105;BME280;58760;48.716;8.962;2023-05-23T01:09:12;96344.31;;;16.43;96.36
71105;BME280;58760;48.716;8.962;2023-05-23T01:11:43;96340.66;;;16.37;96.64
71105;BME280;58760;48.716;8.962;2023-05-23T01:14:16;96342.91;;;16.40;97.16
71105;BME280;58760;48.716;8.962;2023-05-23T01:16:48;96348.91;;;16.29;97.13
71105;BME280;58760;48.716;8.962;2023-05-23T01:22:11;96344.34;;;16.36;97.38
71105;BME280;58760;48.716;8.962;2023-05-23T01:27:21;96348.47;;;16.39;97.19
71105;BME280;58760;48.716;8.962;2023-05-23T01:29:52;96346.88;;;16.25;98.00
71105;BME280;58760;48.716;8.962;2023-05-23T01:32:20;96346.66;;;16.26;98.50
71105;BME280;58760;48.716;8.962;2023-05-23T01:34:48;96352.41;;;16.30;97.99
71105;BME280;58760;48.716;8.962;2023-05-23T01:37:16;96346.09;;;16.17;98.51
71105;BME280;58760;48.716;8.962;2023-05-23T01:39:44;96349.16;;;16.21;98.69
71105;BME280;58760;48.716;8.962;2023-05-23T01:42:09;96350.41;;;16.18;99.02
71105;BME280;58760;48.716;8.962;2023-05-23T01:44:35;96339.72;;;16.18;99.23
71105;BME280;58760;48.716;8.962;2023-05-23T01:47:06;96346.28;;;16.16;99.44
71105;BME280;58760;48.716;8.962;2023-05-23T01:49:33;96348.94;;;16.22;99.18
71105;BME280;58760;48.716;8.962;2023-05-23T01:52:00;96353.50;;;16.22;99.32
71105;BME280;58760;48.716;8.962;2023-05-23T01:54:27;96354.28;;;16.22;99.36
71105;BME280;58760;48.716;8.962;2023-05-23T01:56:57;96355.38;;;16.15;99.56
71105;BME280;58760;48.716;8.962;2023-05-23T01:59:23;96356.63;;;16.12;99.81
71105;BME280;58760;48.716;8.962;2023-05-23T02:01:48;96356.19;;;16.15;99.66
71105;BME280;58760;48.716;8.962;2023-05-23T02:04:14;96355.97;;;16.17;99.95
71105;BME280;58760;48.716;8.962;2023-05-23T02:06:40;96354.53;;;16.21;99.72
71105;BME280;58760;48.716;8.962;2023-05-23T02:09:06;96353.50;;;16.22;99.35
71105;BME280;58760;48.716;8.962;2023-05-23T02:11:32;96346.25;;;16.22;99.48
71105;BME280;58760;48.716;8.962;2023-05-23T02:13:58;96341.31;;;16.26;99.13
71105;BME280;58760;48.716;8.962;2023-05-23T02:16:23;96346.47;;;16.28;99.11
71105;BME280;58760;48.716;8.962;2023-05-23T02:18:50;96344.41;;;16.23;99.48
71105;BME280;58760;48.716;8.962;2023-05-23T02:21:17;96344.63;;;16.21;99.81
71105;BME280;58760;48.716;8.962;2023-05-23T02:23:42;96345.91;;;16.19;99.78
71105;BME280;58760;48.716;8.962;2023-05-23T02:26:07;96349.78;;;16.16;99.65
71105;BME280;58760;48.716;8.962;2023-05-23T02:28:33;96355.16;;;16.16;99.53
71105;BME280;58760;48.716;8.962;2023-05-23T02:30:58;96351.91;;;16.08;99.74
71105;BME280;58760;48.716;8.962;2023-05-23T02:33:24;96353.78;;;16.01;100.00
71105;BME280;58760;48.716;8.962;2023-05-23T02:35:49;96350.50;;;15.99;100.00
71105;BME280;58760;48.716;8.962;2023-05-23T02:38:15;96355.03;;;15.98;100.00
71105;BME280;58760;48.716;8.962;2023-05-23T02:40:41;96358.31;;;15.87;100.00
71105;BME280;58760;48.716;8.962;2023-05-23T02:43:06;96355.47;;;15.82;100.00
71105;BME280;58760;48.716;8.962;2023-05-23T02:45:32;96361.22;;;15.86;100.00
71105;BME280;58760;48.716;8.962;2023-05-23T02:47:57;96356.06;;;15.84;100.00
71105;BME280;58760;48.716;8.962;2023-05-23T02:50:22;96360.59;;;15.90;100.00
71105;BME280;58760;48.716;8.962;2023-05-23T02:52:48;96370.28;;;15.85;100.00
71105;BME280;58760;48.716;8.962;2023-05-23T02:55:13;96371.50;;;15.89;100.00
71105;BME280;58760;48.716;8.962;2023-05-23T02:57:39;96379.75;;;15.87;100.00
71105;BME280;58760;48.716;8.962;2023-05-23T03:00:05;96374.38;;;15.94;100.00
71105;BME280;58760;48.716;8.962;2023-05-23T03:02:30;96377.25;;;16.05;100.00
71105;BME280;58760;48.716;8.962;2023-05-23T03:04:56;96373.50;;;16.13;100.00
71105;BME280;58760;48.716;8.962;2023-05-23T03:07:21;96367.72;;;16.09;99.89
71105;BME280;58760;48.716;8.962;2023-05-23T03:09:47;96369.41;;;16.04;100.00
71105;BME280;58760;48.716;8.962;2023-05-23T03:12:12;96369.38;;;16.10;100.00
71105;BME280;58760;48.716;8.962;2023-05-23T03:14:38;96365.69;;;16.11;100.00
71105;BME280;58760;48.716;8.962;2023-05-23T03:17:03;96369.56;;;16.22;99.75
71105;BME280;58760;48.716;8.962;2023-05-23T03:19:29;96369.53;;;16.29;99.20
71105;BME280;58760;48.716;8.962;2023-05-23T03:21:54;96368.06;;;16.33;98.64
71105;BME280;58760;48.716;8.962;2023-05-23T03:24:20;96373.66;;;16.31;98.56
71105;BME280;58760;48.716;8.962;2023-05-23T03:26:45;96376.28;;;16.38;98.40
71105;BME280;58760;48.716;8.962;2023-05-23T03:29:10;96382.47;;;16.38;98.35
71105;BME280;58760;48.716;8.962;2023-05-23T03:31:36;96382.06;;;16.41;97.97
71105;BME280;58760;48.716;8.962;2023-05-23T03:34:02;96384.75;;;16.35;97.91
71105;BME280;58760;48.716;8.962;2023-05-23T03:36:30;96377.34;;;16.30;98.30
71105;BME280;58760;48.716;8.962;2023-05-23T03:38:57;96376.75;;;16.28;98.42
71105;BME280;58760;48.716;8.962;2023-05-23T03:41:22;96377.16;;;16.32;97.74
71105;BME280;58760;48.716;8.962;2023-05-23T03:43:48;96372.78;;;16.37;97.57
71105;BME280;58760;48.716;8.962;2023-05-23T03:46:14;96370.53;;;16.34;98.05
71105;BME280;58760;48.716;8.962;2023-05-23T03:48:39;96382.69;;;16.30;97.68
71105;BME280;58760;48.716;8.962;2023-05-23T03:51:05;96382.50;;;16.32;97.71
71105;BME280;58760;48.716;8.962;2023-05-23T03:53:30;96383.72;;;16.29;97.32
71105;BME280;58760;48.716;8.962;2023-05-23T03:55:56;96384.97;;;16.27;97.72
71105;BME280;58760;48.716;8.962;2023-05-23T03:58:21;96384.75;;;16.35;97.37
71105;BME280;58760;48.716;8.962;2023-05-23T04:00:46;96386.22;;;16.31;97.72
71105;BME280;58760;48.716;8.962;2023-05-23T04:03:12;96390.97;;;16.29;97.77
71105;BME280;58760;48.716;8.962;2023-05-23T04:05:41;96390.13;;;16.28;97.89
71105;BME280;58760;48.716;8.962;2023-05-23T04:08:07;96382.69;;;16.37;97.72
71105;BME280;58760;48.716;8.962;2023-05-23T04:10:33;96391.56;;;16.31;97.41
71105;BME280;58760;48.716;8.962;2023-05-23T04:12:59;96391.38;;;16.26;98.15
71105;BME280;58760;48.716;8.962;2023-05-23T04:15:24;96391.16;;;16.27;97.67
71105;BME280;58760;48.716;8.962;2023-05-23T04:17:49;96399.41;;;16.26;97.95
71105;BME280;58760;48.716;8.962;2023-05-23T04:20:15;96395.25;;;16.30;97.68
71105;BME280;58760;48.716;8.962;2023-05-23T04:22:41;96388.69;;;16.32;97.09
71105;BME280;58760;48.716;8.962;2023-05-23T04:25:06;96393.22;;;16.32;96.83
71105;BME280;58760;48.716;8.962;2023-05-23T04:27:33;96393.81;;;16.34;96.67
71105;BME280;58760;48.716;8.962;2023-05-23T04:29:59;96395.91;;;16.32;97.19
71105;BME280;58760;48.716;8.962;2023-05-23T04:32:25;96400.00;;;16.34;97.45
71105;BME280;58760;48.716;8.962;2023-05-23T04:34:50;96397.53;;;16.26;97.57
71105;BME280;58760;48.716;8.962;2023-05-23T04:37:17;96401.03;;;16.27;97.78
71105;BME280;58760;48.716;8.962;2023-05-23T04:39:46;96404.34;;;16.35;97.24
71105;BME280;58760;48.716;8.962;2023-05-23T04:42:12;96406.81;;;16.30;97.40
71105;BME280;58760;48.716;8.962;2023-05-23T04:44:38;96410.47;;;16.36;97.51
71105;BME280;58760;48.716;8.962;2023-05-23T04:47:03;96414.63;;;16.38;96.48
71105;BME280;58760;48.716;8.962;2023-05-23T04:49:29;96408.88;;;16.28;97.26
71105;BME280;58760;48.716;8.962;2023-05-23T04:51:54;96408.88;;;16.35;96.86
71105;BME280;58760;48.716;8.962;2023-05-23T04:54:19;96410.91;;;16.33;96.09
71105;BME280;58760;48.716;8.962;2023-05-23T04:56:45;96409.31;;;16.25;96.69
71105;BME280;58760;48.716;8.962;2023-05-23T04:59:11;96420.22;;;16.23;97.29
71105;BME280;58760;48.716;8.962;2023-05-23T05:01:37;96422.88;;;16.30;96.79
71105;BME280;58760;48.716;8.962;2023-05-23T05:04:05;96425.78;;;16.29;96.08
71105;BME280;58760;48.716;8.962;2023-05-23T05:06:31;96431.94;;;16.22;96.23
71105;BME280;58760;48.716;8.962;2023-05-23T05:08:56;96432.34;;;16.26;95.77
71105;BME280;58760;48.716;8.962;2023-05-23T05:11:22;96427.00;;;16.26;95.95
71105;BME280;58760;48.716;8.962;2023-05-23T05:13:47;96431.16;;;16.22;95.96
71105;BME280;58760;48.716;8.962;2023-05-23T05:16:12;96422.88;;;16.23;96.41
71105;BME280;58760;48.716;8.962;2023-05-23T05:18:38;96427.00;;;16.26;95.74
71105;BME280;58760;48.716;8.962;2023-05-23T05:21:04;96439.38;;;16.27;95.57
71105;BME280;58760;48.716;8.962;2023-05-23T05:23:30;96438.13;;;16.23;95.73
71105;BME280;58760;48.716;8.962;2023-05-23T05:25:57;96443.50;;;16.16;95.72
71105;BME280;58760;48.716;8.962;2023-05-23T05:28:22;96435.69;;;16.15;96.43
71105;BME280;58760;48.716;8.962;2023-05-23T05:30:48;96440.22;;;16.21;96.16
71105;BME280;58760;48.716;8.962;2023-05-23T05:33:21;96439.41;;;16.14;95.86
71105;BME280;58760;48.716;8.962;2023-05-23T05:35:49;96446.41;;;16.15;95.96
71105;BME280;58760;48.716;8.962;2023-05-23T05:38:16;96439.63;;;16.12;96.12
71105;BME280;58760;48.716;8.962;2023-05-23T05:40:41;96445.97;;;16.18;96.18
71105;BME280;58760;48.716;8.962;2023-05-23T05:43:07;96442.66;;;16.22;95.76
71105;BME280;58760;48.716;8.962;2023-05-23T05:45:32;96450.31;;;16.19;94.64
71105;BME280;58760;48.716;8.962;2023-05-23T05:47:58;96448.66;;;16.18;94.87
71105;BME280;58760;48.716;8.962;2023-05-23T05:50:23;96450.50;;;16.17;94.84
71105;BME280;58760;48.716;8.962;2023-05-23T05:52:49;96448.44;;;16.19;94.76
71105;BME280;58760;48.716;8.962;2023-05-23T05:55:14;96447.22;;;16.22;94.71
71105;BME280;58760;48.716;8.962;2023-05-23T05:57:40;96444.97;;;16.19;94.94
71105;BME280;58760;48.716;8.962;2023-05-23T06:00:06;96444.31;;;16.17;94.94
71105;BME280;58760;48.716;8.962;2023-05-23T06:02:43;96438.56;;;16.13;95.15
71105;BME280;58760;48.716;8.962;2023-05-23T06:05:11;96446.59;;;16.20;95.26
71105;BME280;58760;48.716;8.962;2023-05-23T06:07:37;96451.75;;;16.15;94.54
71105;BME280;58760;48.716;8.962;2023-05-23T06:10:03;96451.75;;;16.15;95.08
71105;BME280;58760;48.716;8.962;2023-05-23T06:12:29;96443.50;;;16.16;94.97
71105;BME280;58760;48.716;8.962;2023-05-23T06:14:54;96454.63;;;16.13;94.65
71105;BME280;58760;48.716;8.962;2023-05-23T06:17:20;96450.94;;;16.08;95.23
71105;BME280;58760;48.716;8.962;2023-05-23T06:19:45;96461.44;;;16.09;94.95
71105;BME280;58760;48.716;8.962;2023-05-23T06:22:10;96448.88;;;16.10;94.93
71105;BME280;58760;48.716;8.962;2023-05-23T06:24:36;96449.25;;;16.20;94.77
71105;BME280;58760;48.716;8.962;2023-05-23T06:27:02;96453.78;;;16.26;94.82
71105;BME280;58760;48.716;8.962;2023-05-23T06:29:27;96464.88;;;16.36;94.33
71105;BME280;58760;48.716;8.962;2023-05-23T06:31:52;96462.41;;;16.41;91.96
71105;BME280;58760;48.716;8.962;2023-05-23T06:34:20;96463.00;;;16.43;92.27
71105;BME280;58760;48.716;8.962;2023-05-23T06:36:46;96463.22;;;16.42;91.75
71105;BME280;58760;48.716;8.962;2023-05-23T06:39:12;96467.53;;;16.43;92.14
71105;BME280;58760;48.716;8.962;2023-05-23T06:41:38;96466.25;;;16.52;91.19
71105;BME280;58760;48.716;8.962;2023-05-23T06:44:04;96467.31;;;16.57;90.25
71105;BME280;58760;48.716;8.962;2023-05-23T06:46:30;96473.50;;;16.58;89.18
71105;BME280;58760;48.716;8.962;2023-05-23T06:48:55;96480.91;;;16.49;89.81
71105;BME280;58760;48.716;8.962;2023-05-23T06:51:21;96484.66;;;16.48;89.75
71105;BME280;58760;48.716;8.962;2023-05-23T06:53:46;96483.59;;;16.43;89.80
71105;BME280;58760;48.716;8.962;2023-05-23T06:56:12;96491.25;;;16.33;90.36
71105;BME280;58760;48.716;8.962;2023-05-23T06:58:37;96499.94;;;16.28;89.94
71105;BME280;58760;48.716;8.962;2023-05-23T07:01:03;96494.38;;;16.23;89.82
71105;BME280;58760;48.716;8.962;2023-05-23T07:03:28;96495.63;;;16.14;90.41
71105;BME280;58760;48.716;8.962;2023-05-23T07:05:54;96499.13;;;16.08;90.81
71105;BME280;58760;48.716;8.962;2023-05-23T07:08:19;96501.81;;;16.08;90.25
71105;BME280;58760;48.716;8.962;2023-05-23T07:10:45;96506.97;;;16.03;88.90
71105;BME280;58760;48.716;8.962;2023-05-23T07:13:10;96513.97;;;15.97;88.45
71105;BME280;58760;48.716;8.962;2023-05-23T07:15:35;96508.00;;;16.02;87.85
71105;BME280;58760;48.716;8.962;2023-05-23T07:18:01;96508.59;;;16.04;87.90
71105;BME280;58760;48.716;8.962;2023-05-23T07:20:26;96522.63;;;16.06;87.95
71105;BME280;58760;48.716;8.962;2023-05-23T07:22:52;96523.03;;;16.03;88.29
71105;BME280;58760;48.716;8.962;2023-05-23T07:25:17;96517.69;;;16.03;87.91
71105;BME280;58760;48.716;8.962;2023-05-23T07:27:43;96516.44;;;15.99;87.68
71105;BME280;58760;48.716;8.962;2023-05-23T07:30:08;96532.50;;;15.92;87.25
71105;BME280;58760;48.716;8.962;2023-05-23T07:32:36;96520.97;;;15.92;87.19
71105;BME280;58760;48.716;8.962;2023-05-23T07:35:02;96528.78;;;16.00;86.36
71105;BME280;58760;48.716;8.962;2023-05-23T07:37:27;96518.06;;;16.13;85.21
71105;BME280;58760;48.716;8.962;2023-05-23T07:39:54;96523.00;;;16.16;84.91
71105;BME280;58760;48.716;8.962;2023-05-23T07:42:19;96520.13;;;16.11;84.43
71105;BME280;58760;48.716;8.962;2023-05-23T07:44:44;96535.78;;;16.07;84.34
71105;BME280;58760;48.716;8.962;2023-05-23T07:47:10;96529.19;;;16.10;84.26
71105;BME280;58760;48.716;8.962;2023-05-23T07:49:36;96533.31;;;16.12;84.30
71105;BME280;58760;48.716;8.962;2023-05-23T07:52:01;96531.66;;;16.11;84.89
71105;BME280;58760;48.716;8.962;2023-05-23T07:54:27;96525.28;;;16.06;85.13
71105;BME280;58760;48.716;8.962;2023-05-23T07:56:52;96534.13;;;16.13;84.58
71105;BME280;58760;48.716;8.962;2023-05-23T07:59:19;96532.91;;;15.96;84.10
71105;BME280;58760;48.716;8.962;2023-05-23T08:01:44;96540.72;;;16.04;84.51
71105;BME280;58760;48.716;8.962;2023-05-23T08:04:10;96544.03;;;16.12;84.06
71105;BME280;58760;48.716;8.962;2023-05-23T08:06:35;96534.94;;;16.20;83.58
71105;BME280;58760;48.716;8.962;2023-05-23T08:09:02;96541.97;;;16.14;82.72
71105;BME280;58760;48.716;8.962;2023-05-23T08:11:27;96541.75;;;16.16;83.08
71105;BME280;58760;48.716;8.962;2023-05-23T08:13:54;96535.59;;;16.09;83.17
71105;BME280;58760;48.716;8.962;2023-05-23T08:16:20;96544.03;;;16.19;82.20
71105;BME280;58760;48.716;8.962;2023-05-23T08:18:45;96544.41;;;16.22;82.02
71105;BME280;58760;48.716;8.962;2023-05-23T08:21:10;96546.28;;;16.22;82.65
71105;BME280;58760;48.716;8.962;2023-05-23T08:23:36;96553.06;;;16.25;83.20
71105;BME280;58760;48.716;8.962;2023-05-23T08:26:01;96553.91;;;16.25;81.81
71105;BME280;58760;48.716;8.962;2023-05-23T08:28:27;96550.81;;;16.21;81.23
71105;BME280;58760;48.716;8.962;2023-05-23T08:30:52;96553.69;;;16.20;80.36
71105;BME280;58760;48.716;8.962;2023-05-23T08:33:18;96558.84;;;16.15;79.88
71105;BME280;58760;48.716;8.962;2023-05-23T08:35:43;96569.56;;;16.28;80.19
71105;BME280;58760;48.716;8.962;2023-05-23T08:38:09;96559.03;;;16.40;80.23
71105;BME280;58760;48.716;8.962;2023-05-23T08:40:35;96566.84;;;16.48;78.96
71105;BME280;58760;48.716;8.962;2023-05-23T08:43:01;96559.66;;;16.35;78.54
71105;BME280;58760;48.716;8.962;2023-05-23T08:45:27;96568.50;;;16.55;78.19
71105;BME280;58760;48.716;8.962;2023-05-23T08:47:59;96569.13;;;16.57;77.85
71105;BME280;58760;48.716;8.962;2023-05-23T08:50:25;96575.66;;;16.74;77.70
71105;BME280;58760;48.716;8.962;2023-05-23T08:52:57;96578.13;;;16.83;76.75
71105;BME280;58760;48.716;8.962;2023-05-23T08:55:24;96576.31;;;16.77;76.79
71105;BME280;58760;48.716;8.962;2023-05-23T08:57:55;96582.66;;;16.89;77.13
71105;BME280;58760;48.716;8.962;2023-05-23T09:00:22;96578.06;;;17.02;75.73
71105;BME280;58760;48.716;8.962;2023-05-23T09:02:48;96575.28;;;17.29;74.78
71105;BME280;58760;48.716;8.962;2023-05-23T09:05:14;96575.72;;;17.25;73.47
71105;BME280;58760;48.716;8.962;2023-05-23T09:07:42;96579.44;;;17.24;73.87
71105;BME280;58760;48.716;8.962;2023-05-23T09:10:09;96580.69;;;17.22;73.84
71105;BME280;58760;48.716;8.962;2023-05-23T09:12:35;96587.47;;;17.24;73.55
71105;BME280;58760;48.716;8.962;2023-05-23T09:15:05;96586.69;;;17.11;73.88
71105;BME280;58760;48.716;8.962;2023-05-23T09:17:33;96589.25;;;16.86;74.81
71105;BME280;58760;48.716;8.962;2023-05-23T09:20:09;96599.63;;;16.56;75.54
71105;BME280;58760;48.716;8.962;2023-05-23T09:22:36;96594.66;;;16.53;75.31
71105;BME280;58760;48.716;8.962;2023-05-23T09:25:01;96596.53;;;16.59;75.53
71105;BME280;58760;48.716;8.962;2023-05-23T09:27:30;96593.84;;;16.53;75.15
71105;BME280;58760;48.716;8.962;2023-05-23T09:29:55;96598.38;;;16.65;74.45
71105;BME280;58760;48.716;8.962;2023-05-23T09:32:21;96604.97;;;16.69;74.34
71105;BME280;58760;48.716;8.962;2023-05-23T09:37:20;96600.41;;;16.83;74.47
71105;BME280;58760;48.716;8.962;2023-05-23T09:39:49;96601.25;;;16.84;73.22
71105;BME280;58760;48.716;8.962;2023-05-23T09:42:19;96603.31;;;16.75;73.50
71105;BME280;58760;48.716;8.962;2023-05-23T09:44:45;96601.28;;;16.70;74.35
71105;BME280;58760;48.716;8.962;2023-05-23T09:47:11;96597.75;;;16.77;74.09
71105;BME280;58760;48.716;8.962;2023-05-23T09:49:39;96612.00;;;16.70;73.48
71105;BME280;58760;48.716;8.962;2023-05-23T09:52:05;96609.31;;;16.57;74.06
71105;BME280;58760;48.716;8.962;2023-05-23T09:54:31;96607.44;;;16.51;74.60
71105;BME280;58760;48.716;8.962;2023-05-23T09:56:58;96609.94;;;16.59;74.52
71105;BME280;58760;48.716;8.962;2023-05-23T09:59:27;96607.84;;;16.74;74.77
71105;BME280;58760;48.716;8.962;2023-05-23T10:01:56;96603.94;;;16.77;73.50
71105;BME280;58760;48.716;8.962;2023-05-23T10:04:22;96606.78;;;16.82;74.22
71105;BME280;58760;48.716;8.962;2023-05-23T10:06:56;96606.56;;;16.97;73.41
71105;BME280;58760;48.716;8.962;2023-05-23T10:09:25;96608.19;;;16.98;72.56
71105;BME280;58760;48.716;8.962;2023-05-23T10:14:51;96598.00;;;17.26;70.98
71105;BME280;58760;48.716;8.962;2023-05-23T10:17:20;96601.88;;;17.30;70.38
71105;BME280;58760;48.716;8.962;2023-05-23T10:20:05;96602.63;;;17.50;69.97
71105;BME280;58760;48.716;8.962;2023-05-23T10:22:35;96592.25;;;17.67;68.31
71105;BME280;58760;48.716;8.962;2023-05-23T10:25:02;96595.28;;;17.77;67.34
71105;BME280;58760;48.716;8.962;2023-05-23T10:27:30;96603.97;;;17.72;68.00
71105;BME280;58760;48.716;8.962;2023-05-23T10:29:56;96598.66;;;17.97;67.63
71105;BME280;58760;48.716;8.962;2023-05-23T10:32:22;96609.91;;;18.12;66.36
71105;BME280;58760;48.716;8.962;2023-05-23T10:35:05;96603.91;;;18.17;66.10
71105;BME280;58760;48.716;8.962;2023-05-23T10:37:48;96598.91;;;18.20;64.49
71105;BME280;58760;48.716;8.962;2023-05-23T10:43:20;96591.97;;;18.62;63.02
71105;BME280;58760;48.716;8.962;2023-05-23T10:45:47;96596.66;;;18.67;62.54
71105;BME280;58760;48.716;8.962;2023-05-23T10:48:33;96598.44;;;18.73;64.04
71105;BME280;58760;48.716;8.962;2023-05-23T10:51:06;96594.47;;;18.57;64.63
71105;BME280;58760;48.716;8.962;2023-05-23T10:53:37;96592.50;;;18.46;63.33
71105;BME280;58760;48.716;8.962;2023-05-23T10:56:07;96593.88;;;18.55;63.35
71105;BME280;58760;48.716;8.962;2023-05-23T10:58:34;96594.06;;;18.78;64.24
71105;BME280;58760;48.716;8.962;2023-05-23T11:01:07;96593.41;;;19.01;62.36
71105;BME280;58760;48.716;8.962;2023-05-23T11:03:52;96601.38;;;18.90;62.86
71105;BME280;58760;48.716;8.962;2023-05-23T11:06:37;96605.22;;;18.57;63.80
71105;BME280;58760;48.716;8.962;2023-05-23T11:09:11;96609.22;;;18.48;64.23
71105;BME280;58760;48.716;8.962;2023-05-23T11:14:30;96608.22;;;18.43;63.86
71105;BME280;58760;48.716;8.962;2023-05-23T11:16:57;96606.75;;;18.47;62.92
71105;BME280;58760;48.716;8.962;2023-05-23T11:19:24;96614.88;;;18.40;64.07
71105;BME280;58760;48.716;8.962;2023-05-23T11:21:53;96606.91;;;18.27;63.91
71105;BME280;58760;48.716;8.962;2023-05-23T11:24:19;96614.34;;;18.25;63.49
71105;BME280;58760;48.716;8.962;2023-05-23T11:26:56;96620.16;;;18.22;61.98
71105;BME280;58760;48.716;8.962;2023-05-23T11:29:27;96618.84;;;18.31;61.80
71105;BME280;58760;48.716;8.962;2023-05-23T11:31:54;96618.09;;;18.49;61.03
71105;BME280;58760;48.716;8.962;2023-05-23T11:34:20;96612.50;;;18.75;61.25
71105;BME280;58760;48.716;8.962;2023-05-23T11:36:46;96611.63;;;18.81;60.66
71105;BME280;58760;48.716;8.962;2023-05-23T11:39:12;96604.81;;;18.97;60.61
71105;BME280;58760;48.716;8.962;2023-05-23T11:41:38;96610.00;;;18.98;58.66
71105;BME280;58760;48.716;8.962;2023-05-23T11:44:12;96600.50;;;19.14;58.91
71105;BME280;58760;48.716;8.962;2023-05-23T11:46:38;96594.22;;;19.56;57.71
71105;BME280;58760;48.716;8.962;2023-05-23T11:49:11;96600.63;;;20.15;56.81
71105;BME280;58760;48.716;8.962;2023-05-23T11:51:36;96589.81;;;19.44;58.06
71105;BME280;58760;48.716;8.962;2023-05-23T11:54:02;96602.00;;;19.46;57.70
71105;BME280;58760;48.716;8.962;2023-05-23T11:56:27;96593.75;;;19.41;57.80
71105;BME280;58760;48.716;8.962;2023-05-23T11:58:54;96602.72;;;19.35;58.50
71105;BME280;58760;48.716;8.962;2023-05-23T12:01:21;96592.94;;;19.22;59.80
71105;BME280;58760;48.716;8.962;2023-05-23T12:03:54;96597.66;;;19.27;59.83
71105;BME280;58760;48.716;8.962;2023-05-23T12:06:21;96606.09;;;19.30;59.57
71105;BME280;58760;48.716;8.962;2023-05-23T12:08:49;96604.97;;;19.38;59.16
71105;BME280;58760;48.716;8.962;2023-05-23T12:11:15;96599.47;;;19.15;60.49
71105;BME280;58760;48.716;8.962;2023-05-23T12:13:41;96603.47;;;19.06;59.91
71105;BME280;58760;48.716;8.962;2023-05-23T12:16:07;96595.25;;;19.19;59.52
71105;BME280;58760;48.716;8.962;2023-05-23T12:18:33;96590.50;;;19.21;60.86
71105;BME280;58760;48.716;8.962;2023-05-23T12:21:06;96593.56;;;19.24;60.58
71105;BME280;58760;48.716;8.962;2023-05-23T12:23:34;96584.56;;;19.12;60.03
71105;BME280;58760;48.716;8.962;2023-05-23T12:26:03;96588.41;;;19.05;60.34
71105;BME280;58760;48.716;8.962;2023-05-23T12:28:39;96585.09;;;19.03;59.38
71105;BME280;58760;48.716;8.962;2023-05-23T12:31:18;96577.31;;;19.13;58.53
71105;BME280;58760;48.716;8.962;2023-05-23T12:33:45;96578.97;;;20.33;55.49
71105;BME280;58760;48.716;8.962;2023-05-23T12:36:12;96569.59;;;21.17;53.47
71105;BME280;58760;48.716;8.962;2023-05-23T12:38:38;96563.84;;;21.81;51.82
71105;BME280;58760;48.716;8.962;2023-05-23T12:41:14;96565.44;;;21.37;51.68
71105;BME280;58760;48.716;8.962;2023-05-23T12:43:48;96568.66;;;21.11;52.35
71105;BME280;58760;48.716;8.962;2023-05-23T12:46:15;96567.03;;;20.75;53.18
71105;BME280;58760;48.716;8.962;2023-05-23T12:48:40;96560.66;;;21.56;51.17
71105;BME280;58760;48.716;8.962;2023-05-23T12:51:05;96557.22;;;22.17;49.14
71105;BME280;58760;48.716;8.962;2023-05-23T12:53:31;96562.09;;;22.54;48.97
71105;BME280;58760;48.716;8.962;2023-05-23T12:55:56;96565.00;;;22.30;49.02
71105;BME280;58760;48.716;8.962;2023-05-23T12:58:22;96556.69;;;21.75;49.75
71105;BME280;58760;48.716;8.962;2023-05-23T13:00:47;96575.59;;;21.19;51.48
71105;BME280;58760;48.716;8.962;2023-05-23T13:03:13;96571.97;;;20.55;52.08
71105;BME280;58760;48.716;8.962;2023-05-23T13:05:38;96570.69;;;20.69;51.34
71105;BME280;58760;48.716;8.962;2023-05-23T13:08:03;96562.59;;;21.44;51.88
71105;BME280;58760;48.716;8.962;2023-05-23T13:10:29;96552.94;;;22.38;49.61
71105;BME280;58760;48.716;8.962;2023-05-23T13:12:54;96546.91;;;22.86;47.10
71105;BME280;58760;48.716;8.962;2023-05-23T13:15:20;96550.50;;;23.30;46.71